createdAt,value
2023-02-11T00:02:29.639Z,34.87
2023-02-11T00:04:57.668Z,35.53
2023-02-11T00:07:25.820Z,35.80
2023-02-11T00:09:53.926Z,34.23
2023-02-11T00:12:22.170Z,36.23
2023-02-11T00:14:50.359Z,35.40
2023-02-11T00:17:18.802Z,35.13
2023-02-11T00:19:50.546Z,37.27
2023-02-11T00:22:19.056Z,38.40
2023-02-11T00:24:47.293Z,36.83
2023-02-11T00:27:15.254Z,36.37
2023-02-11T00:29:43.266Z,35.73
2023-02-11T00:32:11.740Z,36.40
2023-02-11T00:34:39.799Z,36.87
2023-02-11T00:37:09.209Z,35.50
2023-02-11T00:39:38.327Z,35.90
2023-02-11T00:42:06.338Z,36.50
2023-02-11T00:44:34.367Z,35.13
2023-02-11T00:47:02.321Z,36.07
2023-02-11T00:49:30.306Z,33.43
2023-02-11T00:51:58.304Z,35.63
2023-02-11T00:54:29.935Z,35.30
2023-02-11T00:56:58.002Z,34.07
2023-02-11T00:59:26.070Z,35.47
2023-02-11T01:01:54.108Z,35.17
2023-02-11T01:04:22.069Z,36.87
2023-02-11T01:06:50.058Z,38.13
2023-02-11T01:09:17.999Z,38.83
2023-02-11T01:11:47.309Z,38.80
2023-02-11T01:14:15.501Z,36.37
2023-02-11T01:16:43.542Z,34.83
2023-02-11T01:19:11.552Z,34.73
2023-02-11T01:21:39.547Z,36.23
2023-02-11T01:24:07.962Z,35.53
2023-02-11T01:26:35.962Z,33.33
2023-02-11T01:29:05.361Z,34.10
2023-02-11T01:31:33.501Z,32.77
2023-02-11T01:34:02.244Z,33.93
2023-02-11T01:36:30.181Z,32.63
2023-02-11T01:38:58.131Z,32.87
2023-02-11T01:41:26.079Z,34.17
2023-02-11T01:43:54.047Z,33.30
2023-02-11T01:46:31.019Z,31.33
2023-02-11T01:49:03.737Z,32.33
2023-02-11T01:51:36.845Z,30.60
2023-02-11T01:54:23.775Z,31.80
2023-02-11T01:57:11.292Z,32.10
2023-02-11T01:59:45.204Z,32.07
2023-02-11T02:02:18.510Z,31.60
2023-02-11T02:04:53.832Z,30.37
2023-02-11T02:07:29.802Z,32.30
2023-02-11T02:10:04.065Z,29.97
2023-02-11T02:12:32.054Z,33.23
2023-02-11T02:15:23.590Z,30.80
2023-02-11T02:18:01.942Z,31.13
2023-02-11T02:20:53.868Z,30.07
2023-02-11T02:24:00.958Z,30.40
2023-02-11T02:26:53.604Z,31.70
2023-02-11T02:29:37.740Z,29.67
2023-02-11T02:32:31.370Z,30.70
2023-02-11T02:35:05.480Z,29.80
2023-02-11T02:37:39.395Z,30.20
2023-02-11T02:40:13.782Z,30.63
2023-02-11T02:42:43.112Z,28.80
2023-02-11T02:45:12.978Z,29.23
2023-02-11T02:47:42.321Z,29.40
2023-02-11T02:50:11.697Z,28.83
2023-02-11T02:52:48.834Z,30.60
2023-02-11T02:55:42.701Z,30.77
2023-02-11T02:58:35.683Z,29.43
2023-02-11T03:01:15.291Z,29.80
2023-02-11T03:03:49.967Z,31.07
2023-02-11T03:06:27.060Z,30.63
2023-02-11T03:09:00.630Z,30.27
2023-02-11T03:11:30.149Z,30.53
2023-02-11T03:13:58.742Z,28.97
2023-02-11T03:16:29.205Z,30.17
2023-02-11T03:19:07.237Z,27.90
2023-02-11T03:21:38.004Z,28.80
2023-02-11T03:24:11.076Z,29.23
2023-02-11T03:26:44.283Z,28.67
2023-02-11T03:29:19.191Z,28.67
2023-02-11T03:31:54.506Z,28.77
2023-02-11T03:34:30.771Z,27.83
2023-02-11T03:37:04.465Z,28.00
2023-02-11T03:39:37.602Z,28.10
2023-02-11T03:42:08.645Z,28.07
2023-02-11T03:44:41.134Z,27.37
2023-02-11T03:47:13.511Z,27.57
2023-02-11T03:49:44.252Z,27.20
2023-02-11T03:52:14.320Z,27.47
2023-02-11T03:54:44.505Z,27.77
2023-02-11T03:57:12.703Z,27.27
2023-02-11T03:59:54.709Z,27.67
2023-02-11T04:02:25.146Z,28.10
2023-02-11T04:04:54.515Z,26.30
2023-02-11T04:07:22.646Z,28.33
2023-02-11T04:09:50.777Z,27.30
2023-02-11T04:12:18.923Z,28.63
2023-02-11T04:14:47.104Z,28.47
2023-02-11T04:17:15.193Z,27.30
2023-02-11T04:19:43.142Z,28.37
2023-02-11T04:22:12.929Z,28.20
2023-02-11T04:24:40.927Z,28.83
2023-02-11T04:27:08.843Z,28.37
2023-02-11T04:29:37.029Z,28.23
2023-02-11T04:32:05.141Z,28.40
2023-02-11T04:34:33.552Z,27.90
2023-02-11T04:37:01.533Z,27.60
2023-02-11T04:39:30.837Z,27.07
2023-02-11T04:41:58.904Z,27.27
2023-02-11T04:44:26.927Z,27.23
2023-02-11T04:46:55.001Z,24.97
2023-02-11T04:49:23.075Z,27.17
2023-02-11T04:51:51.190Z,25.33
2023-02-11T04:54:20.019Z,25.77
2023-02-11T04:56:49.707Z,24.67
2023-02-11T04:59:18.004Z,24.97
2023-02-11T05:01:45.962Z,24.73
2023-02-11T05:04:14.001Z,25.20
2023-02-11T05:06:41.985Z,24.23
2023-02-11T05:09:11.332Z,24.70
2023-02-11T05:11:40.125Z,23.67
2023-02-11T05:14:09.545Z,23.83
2023-02-11T05:16:37.544Z,24.50
2023-02-11T05:19:05.674Z,22.80
2023-02-11T05:21:33.640Z,23.47
2023-02-11T05:24:01.632Z,23.80
2023-02-11T05:26:29.634Z,22.33
2023-02-11T05:28:57.711Z,22.90
2023-02-11T05:31:27.063Z,21.50
2023-02-11T05:33:55.135Z,22.30
2023-02-11T05:36:23.102Z,21.63
2023-02-11T05:38:51.669Z,22.87
2023-02-11T05:41:19.648Z,21.40
2023-02-11T05:43:49.942Z,21.20
2023-02-11T05:46:18.845Z,22.77
2023-02-11T05:48:48.228Z,21.53
2023-02-11T05:51:16.184Z,20.93
2023-02-11T05:53:44.149Z,21.63
2023-02-11T05:56:12.541Z,21.27
2023-02-11T05:58:40.493Z,21.13
2023-02-11T06:01:08.462Z,20.13
2023-02-11T06:03:36.526Z,20.37
2023-02-11T06:06:06.747Z,20.17
2023-02-11T06:08:35.125Z,20.40
2023-02-11T06:11:04.121Z,20.27
2023-02-11T06:13:32.062Z,21.00
2023-02-11T06:16:00.951Z,19.77
2023-02-11T06:18:29.508Z,19.73
2023-02-11T06:20:57.784Z,20.77
2023-02-11T06:23:29.997Z,20.30
2023-02-11T06:26:02.978Z,19.87
2023-02-11T06:28:32.234Z,20.47
2023-02-11T06:31:06.508Z,22.27
2023-02-11T06:33:34.782Z,20.00
2023-02-11T06:36:02.783Z,21.10
2023-02-11T06:38:32.329Z,21.80
2023-02-11T06:41:00.389Z,21.50
2023-02-11T06:43:28.423Z,20.83
2023-02-11T06:45:57.187Z,19.53
2023-02-11T06:48:25.259Z,21.07
2023-02-11T06:50:53.234Z,20.90
2023-02-11T06:53:21.186Z,20.70
2023-02-11T06:55:50.786Z,20.93
2023-02-11T06:58:18.942Z,20.23
2023-02-11T07:00:46.924Z,20.57
2023-02-11T07:03:14.904Z,21.33
2023-02-11T07:05:44.113Z,21.97
2023-02-11T07:08:12.134Z,20.20
2023-02-11T07:10:40.179Z,20.70
2023-02-11T07:13:09.497Z,21.37
2023-02-11T07:15:38.408Z,20.60
2023-02-11T07:18:06.470Z,20.40
2023-02-11T07:20:34.457Z,21.13
2023-02-11T07:23:02.419Z,20.93
2023-02-11T07:25:30.418Z,20.77
2023-02-11T07:27:58.481Z,20.83
2023-02-11T07:30:27.842Z,20.73
2023-02-11T07:32:57.142Z,21.43
2023-02-11T07:35:25.062Z,22.70
2023-02-11T07:37:53.052Z,22.60
2023-02-11T07:40:21.212Z,21.33
2023-02-11T07:42:49.145Z,22.87
2023-02-11T07:45:17.509Z,22.77
2023-02-11T07:47:46.875Z,22.33
2023-02-11T07:50:14.814Z,22.30
2023-02-11T07:52:42.810Z,21.27
2023-02-11T07:55:11.536Z,22.00
2023-02-11T07:57:39.613Z,22.80
2023-02-11T08:00:08.308Z,21.03
2023-02-11T08:02:36.260Z,21.97
2023-02-11T08:05:05.851Z,22.17
2023-02-11T08:07:33.848Z,22.27
2023-02-11T08:10:01.901Z,22.50
2023-02-11T08:12:29.852Z,22.57
2023-02-11T08:14:57.809Z,23.57
2023-02-11T08:17:25.873Z,22.37
2023-02-11T08:19:53.962Z,23.10
2023-02-11T08:22:23.269Z,22.90
2023-02-11T08:24:52.471Z,22.13
2023-02-11T08:27:20.541Z,23.30
2023-02-11T08:29:48.481Z,22.37
2023-02-11T08:32:16.518Z,24.00
2023-02-11T08:34:44.516Z,23.43
2023-02-11T08:37:12.677Z,22.87
2023-02-11T08:39:42.498Z,23.30
2023-02-11T08:42:10.445Z,23.07
2023-02-11T08:44:38.548Z,24.23
2023-02-11T08:47:06.676Z,24.07
2023-02-11T08:49:35.166Z,23.90
2023-02-11T08:52:04.249Z,24.77
2023-02-11T08:54:32.409Z,24.67
2023-02-11T08:57:02.385Z,25.07
2023-02-11T08:59:30.742Z,24.33
2023-02-11T09:01:58.799Z,25.77
2023-02-11T09:04:26.771Z,24.50
2023-02-11T09:06:54.830Z,25.70
2023-02-11T09:09:22.969Z,25.40
2023-02-11T09:11:50.934Z,27.27
2023-02-11T09:14:22.609Z,26.33
2023-02-11T09:16:51.071Z,24.80
2023-02-11T09:19:20.090Z,24.00
2023-02-11T09:21:48.299Z,23.70
2023-02-11T09:24:16.554Z,25.17
2023-02-11T09:26:44.597Z,23.93
2023-02-11T09:29:14.195Z,24.20
2023-02-11T09:31:43.740Z,24.67
2023-02-11T09:34:12.700Z,24.70
2023-02-11T09:36:42.178Z,24.80
2023-02-11T09:39:13.117Z,25.33
2023-02-11T09:42:07.729Z,25.13
2023-02-11T09:44:37.963Z,26.70
2023-02-11T09:47:25.252Z,26.67
2023-02-11T09:49:57.166Z,25.67
2023-02-11T09:52:34.679Z,25.10
2023-02-11T09:55:04.651Z,24.77
2023-02-11T09:57:36.011Z,23.87
2023-02-11T10:00:17.074Z,24.17
2023-02-11T10:03:03.163Z,24.83
2023-02-11T10:05:45.246Z,26.33
2023-02-11T10:08:21.241Z,27.17
2023-02-11T10:10:54.044Z,26.07
2023-02-11T10:13:37.004Z,26.20
2023-02-11T10:16:19.395Z,27.13
2023-02-11T10:19:14.807Z,26.47
2023-02-11T10:21:53.372Z,26.27
2023-02-11T10:24:22.267Z,25.23
2023-02-11T10:26:50.591Z,26.97
2023-02-11T10:29:31.330Z,25.43
2023-02-11T10:32:00.623Z,26.87
2023-02-11T10:34:30.040Z,25.50
2023-02-11T10:36:58.015Z,26.10
2023-02-11T10:39:28.175Z,25.97
2023-02-11T10:42:00.359Z,25.07
2023-02-11T10:44:32.073Z,25.53
2023-02-11T10:47:03.999Z,25.67
2023-02-11T10:49:39.541Z,24.77
2023-02-11T10:52:21.475Z,25.37
2023-02-11T10:55:02.154Z,24.73
2023-02-11T10:57:34.788Z,25.03
2023-02-11T11:00:09.063Z,26.43
2023-02-11T11:02:44.063Z,24.67
2023-02-11T11:05:20.847Z,24.73
2023-02-11T11:07:57.014Z,25.77
2023-02-11T11:10:31.639Z,24.43
2023-02-11T11:12:59.637Z,25.13
2023-02-11T11:15:28.829Z,23.90
2023-02-11T11:18:21.467Z,25.20
2023-02-11T11:21:00.825Z,25.17
2023-02-11T11:23:30.893Z,25.23
2023-02-11T11:26:03.829Z,25.77
2023-02-11T11:28:38.948Z,26.33
2023-02-11T11:31:13.929Z,25.83
2023-02-11T11:33:44.595Z,26.07
2023-02-11T11:36:16.855Z,25.67
2023-02-11T11:38:50.318Z,26.07
2023-02-11T11:41:26.931Z,24.93
2023-02-11T11:44:00.809Z,25.53
2023-02-11T11:46:31.573Z,26.00
2023-02-11T11:49:22.156Z,26.40
2023-02-11T11:51:57.753Z,27.33
2023-02-11T11:54:28.820Z,27.03
2023-02-11T11:57:01.906Z,24.97
2023-02-11T11:59:30.306Z,26.47
2023-02-11T12:02:15.177Z,27.97
2023-02-11T12:05:03.967Z,27.87
2023-02-11T12:07:47.778Z,25.50
2023-02-11T12:10:41.085Z,25.40
2023-02-11T12:13:22.747Z,26.10
2023-02-11T12:16:00.426Z,24.13
2023-02-11T12:19:04.414Z,26.33
2023-02-11T12:21:41.820Z,25.70
2023-02-11T12:24:29.411Z,25.67
2023-02-11T12:27:03.398Z,26.17
2023-02-11T12:29:40.117Z,26.97
2023-02-11T12:32:18.692Z,25.77
2023-02-11T12:35:08.505Z,29.10
2023-02-11T12:37:48.993Z,28.10
2023-02-11T12:40:22.077Z,32.33
2023-02-11T12:43:18.508Z,31.60
2023-02-11T12:46:07.574Z,31.97
2023-02-11T12:49:01.342Z,29.67
2023-02-11T12:51:41.645Z,27.83
2023-02-11T12:54:21.164Z,30.10
2023-02-11T12:56:55.433Z,29.47
2023-02-11T12:59:34.349Z,30.13
2023-02-11T13:02:07.841Z,27.63
2023-02-11T13:04:41.487Z,30.20
2023-02-11T13:07:15.534Z,29.50
2023-02-11T13:09:47.857Z,31.47
2023-02-11T13:12:35.708Z,29.47
2023-02-11T13:15:08.545Z,29.70
2023-02-11T13:17:41.889Z,28.40
2023-02-11T13:20:21.836Z,28.60
2023-02-11T13:22:57.678Z,30.23
2023-02-11T13:25:33.215Z,29.83
2023-02-11T13:28:12.239Z,29.73
2023-02-11T13:30:47.098Z,29.67
2023-02-11T13:33:21.644Z,30.93
2023-02-11T13:36:11.096Z,30.43
2023-02-11T13:38:39.753Z,28.67
2023-02-11T13:41:24.722Z,28.47
2023-02-11T13:44:23.128Z,29.90
2023-02-11T13:46:59.718Z,31.10
2023-02-11T13:49:32.894Z,29.80
2023-02-11T13:52:02.907Z,29.53
2023-02-11T13:54:37.094Z,32.27
2023-02-11T13:57:24.104Z,33.10
2023-02-11T13:59:54.925Z,30.93
2023-02-11T14:02:47.392Z,31.40
2023-02-11T14:05:45.964Z,30.67
2023-02-11T14:08:39.849Z,29.70
2023-02-11T14:11:12.401Z,30.10
2023-02-11T14:14:17.910Z,30.97
2023-02-11T14:17:24.871Z,29.70
2023-02-11T14:19:54.238Z,29.63
2023-02-11T14:22:26.716Z,28.50
2023-02-11T14:24:58.294Z,31.10
2023-02-11T14:27:37.567Z,29.20
2023-02-11T14:30:24.619Z,31.87
2023-02-11T14:33:23.766Z,33.43
2023-02-11T14:36:03.293Z,34.57
2023-02-11T14:38:41.930Z,33.93
2023-02-11T14:41:17.261Z,33.47
2023-02-11T14:43:49.403Z,34.63
2023-02-11T14:46:18.675Z,35.13
2023-02-11T14:48:48.715Z,35.00
2023-02-11T14:51:23.339Z,30.33
2023-02-11T14:53:54.043Z,30.63
2023-02-11T14:56:24.737Z,31.27
2023-02-11T14:58:53.357Z,31.10
2023-02-11T15:01:31.564Z,31.67
2023-02-11T15:04:00.991Z,34.03
2023-02-11T15:06:34.093Z,34.33
2023-02-11T15:09:05.920Z,35.37
2023-02-11T15:11:39.269Z,34.10
2023-02-11T15:14:10.718Z,34.37
2023-02-11T15:16:43.914Z,34.63
2023-02-11T15:19:22.449Z,31.87
2023-02-11T15:21:52.893Z,32.70
2023-02-11T15:24:26.264Z,35.10
2023-02-11T15:27:02.484Z,34.93
2023-02-11T15:29:37.407Z,32.67
2023-02-11T15:32:08.002Z,34.23
2023-02-11T15:34:36.140Z,33.57
2023-02-11T15:37:05.875Z,35.23
2023-02-11T15:39:37.499Z,36.17
2023-02-11T15:42:23.158Z,35.13
2023-02-11T15:45:09.938Z,35.33
2023-02-11T15:47:38.180Z,36.97
2023-02-11T15:50:07.082Z,36.40
2023-02-11T15:52:36.501Z,37.40
2023-02-11T15:55:05.262Z,36.53
2023-02-11T15:57:34.804Z,36.83
2023-02-11T16:00:07.169Z,37.20
2023-02-11T16:02:38.623Z,36.33
2023-02-11T16:05:08.595Z,35.23
2023-02-11T16:07:43.513Z,35.90
2023-02-11T16:10:22.952Z,36.53
2023-02-11T16:13:03.903Z,35.73
2023-02-11T16:15:44.310Z,35.03
2023-02-11T16:18:28.517Z,34.37
2023-02-11T16:21:06.379Z,34.63
2023-02-11T16:23:39.012Z,32.13
2023-02-11T16:26:11.084Z,35.30
2023-02-11T16:28:39.492Z,37.17
2023-02-11T16:31:09.644Z,37.13
2023-02-11T16:33:37.753Z,38.93
2023-02-11T16:36:13.347Z,36.23
2023-02-11T16:38:42.651Z,36.20
2023-02-11T16:41:11.868Z,35.77
2023-02-11T16:43:40.504Z,37.17
2023-02-11T16:46:09.402Z,36.63
2023-02-11T16:48:38.711Z,35.73
2023-02-11T16:51:09.215Z,37.80
2023-02-11T16:53:37.222Z,38.77
2023-02-11T16:56:07.131Z,43.43
2023-02-11T16:58:35.147Z,42.27
2023-02-11T17:01:03.264Z,42.03
2023-02-11T17:03:35.852Z,41.40
2023-02-11T17:06:05.768Z,42.37
2023-02-11T17:08:34.092Z,43.10
2023-02-11T17:11:02.135Z,44.30
2023-02-11T17:13:31.476Z,45.10
2023-02-11T17:15:59.541Z,42.47
2023-02-11T17:18:27.533Z,41.37
2023-02-11T17:20:55.510Z,43.17
2023-02-11T17:23:23.478Z,42.33
2023-02-11T17:25:57.549Z,41.40
2023-02-11T17:28:25.527Z,45.43
2023-02-11T17:30:54.968Z,47.63
2023-02-11T17:33:23.026Z,46.83
2023-02-11T17:35:51.482Z,43.67
2023-02-11T17:38:19.690Z,44.33
2023-02-11T17:40:47.632Z,44.63
2023-02-11T17:43:16.048Z,47.70
2023-02-11T17:45:44.100Z,48.77
2023-02-11T17:48:13.395Z,45.37
2023-02-11T17:50:41.337Z,45.57
2023-02-11T17:53:09.281Z,44.93
2023-02-11T17:55:38.479Z,44.80
2023-02-11T17:58:06.489Z,46.93
2023-02-11T18:00:34.573Z,45.33
2023-02-11T18:03:03.303Z,48.33
2023-02-11T18:05:36.826Z,44.87
2023-02-11T18:08:05.985Z,44.40
2023-02-11T18:10:34.583Z,45.97
2023-02-11T18:13:02.616Z,46.10
2023-02-11T18:15:30.561Z,46.60
2023-02-11T18:17:58.557Z,47.07
2023-02-11T18:20:26.585Z,43.30
2023-02-11T18:22:55.889Z,45.93
2023-02-11T18:25:23.856Z,44.50
2023-02-11T18:27:51.836Z,44.03
2023-02-11T18:30:20.703Z,42.17
2023-02-11T18:32:48.710Z,42.67
2023-02-11T18:35:16.987Z,41.37
2023-02-11T18:37:44.948Z,41.83
2023-02-11T18:40:15.275Z,40.37
2023-02-11T18:42:43.407Z,39.67
2023-02-11T18:45:15.037Z,41.67
2023-02-11T18:47:43.023Z,41.73
2023-02-11T18:50:13.783Z,44.03
2023-02-11T18:52:41.953Z,45.30
2023-02-11T18:55:10.620Z,42.17
2023-02-11T18:57:39.944Z,41.13
2023-02-11T19:00:10.065Z,41.20
2023-02-11T19:02:38.082Z,40.73
2023-02-11T19:05:06.926Z,43.17
2023-02-11T19:07:34.919Z,42.30
2023-02-11T19:10:02.914Z,46.23
2023-02-11T19:12:31.837Z,45.57
2023-02-11T19:15:01.491Z,42.97
2023-02-11T19:17:29.487Z,41.37
2023-02-11T19:19:57.456Z,42.37
2023-02-11T19:22:25.437Z,43.17
2023-02-11T19:24:53.442Z,43.40
2023-02-11T19:27:21.429Z,43.77
2023-02-11T19:29:49.578Z,41.43
2023-02-11T19:32:18.929Z,42.03
2023-02-11T19:34:46.934Z,41.30
2023-02-11T19:37:15.101Z,41.77
2023-02-11T19:39:44.373Z,42.17
2023-02-11T19:42:12.761Z,43.47
2023-02-11T19:44:40.799Z,45.90
2023-02-11T19:47:10.262Z,44.73
2023-02-11T19:49:39.571Z,44.53
2023-02-11T19:52:07.518Z,45.13
2023-02-11T19:54:35.477Z,44.13
2023-02-11T19:57:03.428Z,46.20
2023-02-11T19:59:31.477Z,45.63
2023-02-11T20:02:01.441Z,49.17
2023-02-11T20:04:32.107Z,44.87
2023-02-11T20:07:01.474Z,48.73
2023-02-11T20:09:31.154Z,48.43
2023-02-11T20:11:59.711Z,45.70
2023-02-11T20:14:28.232Z,44.20
2023-02-11T20:16:56.333Z,44.63
2023-02-11T20:19:24.469Z,41.43
2023-02-11T20:21:55.828Z,40.60
2023-02-11T20:24:26.676Z,39.77
2023-02-11T20:26:56.523Z,41.43
2023-02-11T20:29:25.550Z,39.37
2023-02-11T20:31:53.752Z,39.60
2023-02-11T20:34:22.256Z,39.17
2023-02-11T20:36:52.880Z,37.07
2023-02-11T20:39:22.829Z,41.37
2023-02-11T20:41:53.687Z,39.97
2023-02-11T20:44:23.325Z,39.33
2023-02-11T20:46:52.220Z,37.20
2023-02-11T20:49:22.385Z,39.23
2023-02-11T20:51:53.637Z,35.57
2023-02-11T20:54:23.388Z,37.63
2023-02-11T20:56:53.944Z,32.93
2023-02-11T20:59:23.001Z,31.40
2023-02-11T21:01:55.348Z,29.20
2023-02-11T21:04:25.952Z,27.67
2023-02-11T21:06:56.993Z,26.73
2023-02-11T21:09:27.868Z,23.13
2023-02-11T21:12:00.237Z,23.57
2023-02-11T21:14:29.080Z,25.70
2023-02-11T21:16:57.523Z,25.63
2023-02-11T21:19:25.928Z,23.93
2023-02-11T21:21:55.138Z,24.33
2023-02-11T21:24:23.772Z,24.77
2023-02-11T21:26:51.823Z,25.67
2023-02-11T21:29:21.178Z,23.80
2023-02-11T21:31:49.740Z,25.70
2023-02-11T21:34:18.014Z,24.73
2023-02-11T21:36:45.994Z,24.27
2023-02-11T21:39:14.929Z,24.87
2023-02-11T21:41:42.949Z,25.07
2023-02-11T21:44:10.905Z,22.67
2023-02-11T21:46:40.252Z,22.57
2023-02-11T21:49:08.269Z,24.40
2023-02-11T21:51:36.317Z,23.07
2023-02-11T21:54:05.310Z,24.87
2023-02-11T21:56:35.071Z,26.07
2023-02-11T21:59:03.084Z,26.57
2023-02-11T22:01:33.321Z,26.80
2023-02-11T22:04:02.818Z,23.00
2023-02-11T22:06:33.802Z,22.10
2023-02-11T22:09:06.768Z,22.60
2023-02-11T22:11:34.742Z,21.20
2023-02-11T22:14:02.743Z,21.33
2023-02-11T22:16:31.740Z,18.93
2023-02-11T22:19:02.287Z,19.40
2023-02-11T22:21:31.741Z,20.53
2023-02-11T22:23:59.710Z,19.30
2023-02-11T22:26:28.830Z,20.17
2023-02-11T22:28:57.586Z,19.57
2023-02-11T22:31:27.762Z,21.07
2023-02-11T22:33:56.042Z,22.67
2023-02-11T22:36:25.872Z,21.67
2023-02-11T22:38:56.003Z,21.70
2023-02-11T22:41:24.333Z,21.03
2023-02-11T22:43:52.370Z,21.83
2023-02-11T22:46:21.015Z,22.07
2023-02-11T22:48:49.264Z,22.23
2023-02-11T22:51:19.426Z,20.53
2023-02-11T22:53:51.063Z,19.70
2023-02-11T22:56:20.646Z,19.60
2023-02-11T22:58:48.902Z,20.77
2023-02-11T23:01:17.814Z,21.33
2023-02-11T23:03:46.353Z,19.80
2023-02-11T23:06:14.486Z,21.20
2023-02-11T23:08:43.343Z,20.90
2023-02-11T23:11:13.711Z,22.10
2023-02-11T23:13:44.255Z,21.83
2023-02-11T23:16:14.128Z,20.87
2023-02-11T23:18:43.586Z,20.43
2023-02-11T23:21:15.873Z,21.77
2023-02-11T23:23:44.273Z,20.43
2023-02-11T23:26:13.876Z,18.97
2023-02-11T23:28:45.898Z,21.80
2023-02-11T23:31:15.821Z,20.03
2023-02-11T23:33:44.159Z,19.50
2023-02-11T23:36:12.825Z,20.03
2023-02-11T23:38:40.785Z,18.20
2023-02-11T23:41:08.905Z,19.93
2023-02-11T23:43:37.058Z,20.40
2023-02-11T23:46:07.343Z,21.97
2023-02-11T23:48:36.040Z,21.33
2023-02-11T23:51:04.171Z,20.90
2023-02-11T23:53:32.263Z,20.53
2023-02-11T23:56:00.204Z,20.87
2023-02-11T23:58:28.180Z,19.37
